Time;durP1;ratioP1;P1;durP2;ratioP2;P2;SDS_P1;SDS_P2;PMS_P1;PMS_P2;Temp;Humidity;BMP_temperature;BMP_pressure;BME280_temperature;BME280_humidity;BME280_pressure;Samples;Min_cycle;Max_cycle;Signal;HPM_P1;HPM_P2
2022/08/29 00:01:22;;;;;;;7.70;7.17;;;16.90;99.90;;;;;;5045677;28;20722;-81
2022/08/29 00:03:49;;;;;;;8.27;7.67;;;16.90;99.90;;;;;;5047263;28;20677;-80
2022/08/29 00:06:16;;;;;;;7.33;6.83;;;16.90;99.90;;;;;;5043995;28;21334;-81
2022/08/29 00:08:45;;;;;;;8.10;7.37;;;16.80;99.90;;;;;;5047791;28;21093;-81
2022/08/29 00:11:13;;;;;;;8.53;7.83;;;16.80;99.90;;;;;;5046263;28;21538;-81
2022/08/29 00:13:42;;;;;;;7.77;7.20;;;16.80;99.90;;;;;;5045801;28;20990;-81
2022/08/29 00:16:10;;;;;;;8.40;7.60;;;16.70;99.90;;;;;;5043892;28;21012;-81
2022/08/29 00:18:38;;;;;;;7.73;7.10;;;16.70;99.90;;;;;;5046207;28;20653;-80
2022/08/29 00:21:06;;;;;;;8.33;7.63;;;16.70;99.90;;;;;;5045596;28;20641;-80
2022/08/29 00:23:33;;;;;;;8.90;8.07;;;16.70;99.90;;;;;;5046349;28;20630;-80
2022/08/29 00:26:00;;;;;;;7.80;7.30;;;16.60;99.90;;;;;;5043870;28;20736;-80
2022/08/29 00:28:27;;;;;;;7.90;7.20;;;16.70;99.90;;;;;;5042425;28;20668;-80
2022/08/29 00:30:53;;;;;;;8.60;8.00;;;16.60;99.90;;;;;;5045709;28;20656;-80
2022/08/29 00:33:20;;;;;;;7.90;7.20;;;16.60;99.90;;;;;;5046781;28;20630;-80
2022/08/29 00:35:48;;;;;;;7.40;6.30;;;16.60;99.90;;;;;;5045331;28;21405;-80
2022/08/29 00:38:17;;;;;;;8.47;7.57;;;16.50;99.90;;;;;;5044123;28;20646;-79
2022/08/29 00:40:46;;;;;;;8.20;7.60;;;16.50;99.90;;;;;;5043571;28;20633;-80
2022/08/29 00:43:13;;;;;;;8.70;8.10;;;16.50;99.90;;;;;;5045743;28;20687;-80
2022/08/29 00:45:47;;;;;;;8.97;8.37;;;16.40;99.90;;;;;;5046818;28;20691;-80
2022/08/29 00:48:15;;;;;;;8.53;7.83;;;16.40;99.90;;;;;;5043766;28;20658;-79
2022/08/29 00:50:45;;;;;;;8.70;8.00;;;16.30;99.90;;;;;;5046302;28;20628;-79
2022/08/29 00:53:16;;;;;;;9.03;8.33;;;16.30;99.90;;;;;;5046910;28;20626;-81
2022/08/29 00:55:45;;;;;;;9.50;8.80;;;16.40;99.90;;;;;;5042930;28;20662;-79
2022/08/29 00:58:16;;;;;;;9.50;8.60;;;16.30;99.90;;;;;;5045945;28;20646;-79
2022/08/29 01:00:44;;;;;;;9.20;8.50;;;16.30;99.90;;;;;;5042424;28;20641;-79
2022/08/29 01:03:12;;;;;;;8.87;8.20;;;16.30;99.90;;;;;;5044389;28;21433;-79
2022/08/29 01:05:39;;;;;;;10.43;9.53;;;16.20;99.90;;;;;;5045960;28;20687;-79
2022/08/29 01:08:07;;;;;;;9.23;8.37;;;16.20;99.90;;;;;;5045053;28;20645;-79
2022/08/29 01:13:23;;;;;;;9.47;8.80;;;16.20;99.90;;;;;;5043422;28;20614;-79
2022/08/29 01:15:50;;;;;;;9.57;8.67;;;16.10;99.90;;;;;;5045358;28;20650;-80
2022/08/29 01:18:18;;;;;;;9.60;8.80;;;16.10;99.90;;;;;;5043444;28;21225;-80
2022/08/29 01:20:54;;;;;;;9.40;8.60;;;16.10;99.90;;;;;;5046506;28;20633;-81
2022/08/29 01:23:26;;;;;;;13.40;9.17;;;16.10;99.90;;;;;;5043733;28;20649;-81
2022/08/29 01:25:59;;;;;;;9.70;8.80;;;16.10;99.90;;;;;;5045931;28;20601;-79
2022/08/29 01:28:30;;;;;;;8.90;8.20;;;16.10;99.90;;;;;;5041311;28;20642;-79
2022/08/29 01:31:03;;;;;;;8.50;7.80;;;16.10;99.90;;;;;;5044111;28;20661;-79
2022/08/29 01:33:38;;;;;;;8.70;8.10;;;16.10;99.90;;;;;;5045748;28;21172;-79
2022/08/29 01:36:05;;;;;;;9.13;8.43;;;16.00;99.90;;;;;;5041050;28;20586;-79
2022/08/29 01:38:32;;;;;;;9.30;8.60;;;16.00;99.90;;;;;;5047787;28;20650;-79
2022/08/29 01:41:00;;;;;;;9.40;8.60;;;16.00;99.90;;;;;;5043549;28;20716;-79
2022/08/29 01:43:28;;;;;;;10.33;9.53;;;16.00;99.90;;;;;;5042759;28;21152;-79
2022/08/29 01:45:56;;;;;;;10.50;9.50;;;16.00;99.90;;;;;;5044126;28;20626;-79
2022/08/29 01:48:23;;;;;;;8.90;8.10;;;16.00;99.90;;;;;;5043960;28;20658;-79
2022/08/29 01:50:50;;;;;;;10.07;9.20;;;16.00;99.90;;;;;;5046699;28;20661;-79
2022/08/29 01:53:17;;;;;;;9.47;8.77;;;15.90;99.90;;;;;;5043095;28;20626;-79
2022/08/29 01:55:44;;;;;;;10.70;9.77;;;15.90;99.90;;;;;;5044021;28;20665;-79
2022/08/29 01:58:12;;;;;;;10.27;9.37;;;15.90;99.90;;;;;;5042389;28;20655;-80
2022/08/29 02:00:40;;;;;;;9.00;8.40;;;15.80;99.90;;;;;;5044503;28;20629;-80
2022/08/29 02:03:06;;;;;;;8.97;8.37;;;15.80;99.90;;;;;;5042820;28;20653;-80
2022/08/29 02:05:33;;;;;;;11.37;10.57;;;15.80;99.90;;;;;;5045045;28;20629;-80
2022/08/29 02:08:00;;;;;;;11.40;10.60;;;15.80;99.90;;;;;;5043377;28;20685;-79
2022/08/29 02:10:29;;;;;;;12.20;11.03;;;15.80;99.90;;;;;;5042851;28;21157;-79
2022/08/29 02:12:56;;;;;;;11.53;10.53;;;15.80;99.90;;;;;;5035522;28;20972;-78
2022/08/29 02:15:24;;;;;;;12.43;11.33;;;15.80;99.90;;;;;;5040561;28;20681;-79
2022/08/29 02:17:51;;;;;;;13.03;11.93;;;15.80;99.90;;;;;;5044375;28;20696;-80
2022/08/29 02:20:18;;;;;;;12.63;11.60;;;15.80;99.90;;;;;;5044556;28;20735;-79
2022/08/29 02:22:45;;;;;;;12.60;11.50;;;15.80;99.90;;;;;;5045971;28;20633;-80
2022/08/29 02:27:53;;;;;;;12.70;11.60;;;15.80;99.90;;;;;;5023634;28;21417;-80
2022/08/29 02:30:20;;;;;;;12.80;11.70;;;15.80;99.90;;;;;;5045560;28;20618;-80
2022/08/29 02:32:49;;;;;;;12.47;11.33;;;15.80;99.90;;;;;;5044985;28;20637;-80
2022/08/29 02:35:16;;;;;;;12.90;11.90;;;15.70;99.90;;;;;;5044569;28;21002;-82
2022/08/29 02:37:43;;;;;;;12.77;11.87;;;15.70;99.90;;;;;;5044844;28;20653;-80
2022/08/29 02:40:10;;;;;;;13.20;12.20;;;15.70;99.90;;;;;;5044123;28;20678;-80
2022/08/29 02:42:37;;;;;;;13.00;12.10;;;15.70;99.90;;;;;;5045795;28;20621;-80
2022/08/29 02:45:05;;;;;;;13.93;12.63;;;15.80;99.90;;;;;;5043645;28;20699;-80
2022/08/29 02:47:35;;;;;;;13.17;12.17;;;15.80;99.90;;;;;;5044216;28;20649;-80
2022/08/29 02:50:05;;;;;;;13.53;12.53;;;15.70;99.90;;;;;;5044386;28;20630;-80
2022/08/29 02:52:32;;;;;;;13.20;11.97;;;15.70;99.90;;;;;;5047131;28;20720;-80
2022/08/29 02:54:59;;;;;;;12.20;11.40;;;15.60;99.90;;;;;;5047710;28;20662;-80
2022/08/29 02:57:27;;;;;;;13.67;12.27;;;15.60;99.90;;;;;;5048370;28;20676;-80
2022/08/29 02:59:53;;;;;;;12.07;11.07;;;15.60;99.90;;;;;;5048141;28;20630;-80
2022/08/29 03:02:21;;;;;;;14.60;13.40;;;15.60;99.90;;;;;;5034855;28;21234;-79
2022/08/29 03:04:48;;;;;;;12.40;11.40;;;15.60;99.90;;;;;;5050062;28;20640;-80
2022/08/29 03:07:16;;;;;;;12.40;11.40;;;15.60;99.90;;;;;;5046432;28;20642;-80
2022/08/29 03:09:43;;;;;;;13.27;12.07;;;15.60;99.90;;;;;;5048469;28;20637;-80
2022/08/29 03:12:09;;;;;;;12.97;11.93;;;15.50;99.90;;;;;;5049407;28;20629;-80
2022/08/29 03:14:36;;;;;;;13.63;12.53;;;15.50;99.90;;;;;;5047428;28;20665;-80
2022/08/29 03:17:03;;;;;;;15.13;14.00;;;15.50;99.90;;;;;;5047415;28;20631;-80
2022/08/29 03:19:30;;;;;;;13.73;12.53;;;15.50;99.90;;;;;;5049379;28;20640;-80
2022/08/29 03:21:57;;;;;;;13.60;12.60;;;15.40;99.90;;;;;;5048440;28;20659;-80
2022/08/29 03:24:25;;;;;;;13.47;12.37;;;15.40;99.90;;;;;;5048067;28;20636;-80
2022/08/29 03:26:52;;;;;;;13.50;12.40;;;15.40;99.90;;;;;;5048132;28;20671;-80
2022/08/29 03:29:19;;;;;;;13.10;12.00;;;15.40;99.90;;;;;;5043077;28;21244;-80
2022/08/29 03:31:45;;;;;;;13.70;12.60;;;15.40;99.90;;;;;;5048555;28;20636;-80
2022/08/29 03:34:13;;;;;;;14.47;13.27;;;15.40;99.90;;;;;;5047297;28;21057;-80
2022/08/29 03:36:40;;;;;;;13.73;12.63;;;15.40;99.90;;;;;;5047950;28;20630;-80
2022/08/29 03:39:06;;;;;;;13.30;12.10;;;15.40;99.90;;;;;;5046119;28;20696;-80
2022/08/29 03:41:35;;;;;;;12.37;11.27;;;15.30;99.90;;;;;;5048377;28;20626;-80
2022/08/29 03:44:02;;;;;;;14.17;12.80;;;15.30;99.90;;;;;;5047887;28;20656;-80
2022/08/29 03:46:28;;;;;;;13.20;12.30;;;15.30;99.90;;;;;;5049003;28;20637;-80
2022/08/29 03:48:55;;;;;;;12.53;11.37;;;15.30;99.90;;;;;;5047477;28;20684;-80
2022/08/29 03:51:25;;;;;;;13.37;12.37;;;15.30;99.90;;;;;;5047428;28;20670;-80
2022/08/29 03:53:53;;;;;;;13.30;12.17;;;15.30;99.90;;;;;;5049134;28;20733;-80
2022/08/29 03:56:20;;;;;;;13.43;12.43;;;15.30;99.90;;;;;;5047566;28;20665;-80
2022/08/29 03:58:49;;;;;;;13.93;12.63;;;15.30;99.90;;;;;;5047628;28;20747;-80
2022/08/29 04:01:17;;;;;;;13.97;12.57;;;15.20;99.90;;;;;;5047112;28;20633;-80
2022/08/29 04:03:44;;;;;;;13.77;12.60;;;15.20;99.90;;;;;;5047871;28;20744;-81
2022/08/29 04:06:11;;;;;;;13.53;12.33;;;15.20;99.90;;;;;;5045331;28;20627;-80
2022/08/29 04:08:38;;;;;;;13.90;12.90;;;15.20;99.90;;;;;;5048079;28;20651;-80
2022/08/29 04:11:09;;;;;;;13.57;12.47;;;15.10;99.90;;;;;;5047505;28;20644;-81
2022/08/29 04:13:37;;;;;;;13.63;12.23;;;15.10;99.90;;;;;;5046972;28;20660;-80
2022/08/29 04:16:10;;;;;;;13.90;12.83;;;15.10;99.90;;;;;;5046193;28;21298;-80
2022/08/29 04:18:37;;;;;;;14.03;12.73;;;15.10;99.90;;;;;;5047362;28;21243;-80
2022/08/29 04:21:06;;;;;;;11.93;11.03;;;15.10;99.90;;;;;;5046996;28;20626;-80
2022/08/29 04:23:34;;;;;;;12.67;11.50;;;15.20;99.90;;;;;;5047520;28;20626;-79
2022/08/29 04:26:01;;;;;;;13.10;12.17;;;15.20;99.90;;;;;;5046890;28;20629;-79
2022/08/29 04:28:28;;;;;;;13.00;11.90;;;15.10;99.90;;;;;;5041166;28;21243;-80
2022/08/29 04:30:57;;;;;;;13.03;11.93;;;15.10;99.90;;;;;;5045598;28;20637;-79
2022/08/29 04:33:27;;;;;;;13.97;12.97;;;15.10;99.90;;;;;;5047056;28;20620;-81
2022/08/29 04:35:54;;;;;;;14.60;13.50;;;15.10;99.90;;;;;;5044894;28;20760;-81
2022/08/29 04:38:20;;;;;;;12.60;11.60;;;15.10;99.90;;;;;;5046279;28;21020;-81
2022/08/29 04:40:48;;;;;;;13.20;12.10;;;15.10;99.90;;;;;;5045670;28;21188;-81
2022/08/29 04:43:15;;;;;;;13.23;12.03;;;15.10;99.90;;;;;;5044385;28;20630;-82
2022/08/29 04:45:41;;;;;;;13.47;12.40;;;15.00;99.90;;;;;;5042840;28;20626;-81
2022/08/29 04:48:09;;;;;;;13.30;12.30;;;15.10;99.90;;;;;;5044822;28;20850;-81
2022/08/29 04:50:37;;;;;;;12.33;11.33;;;15.10;99.90;;;;;;5045752;28;20644;-81
2022/08/29 04:53:04;;;;;;;12.37;11.50;;;15.10;99.90;;;;;;5043790;28;20658;-81
2022/08/29 04:55:31;;;;;;;11.93;11.13;;;15.10;99.90;;;;;;5045059;28;20673;-81
2022/08/29 04:57:58;;;;;;;11.30;10.60;;;15.00;99.90;;;;;;5044577;28;20989;-81
2022/08/29 05:00:28;;;;;;;11.87;10.97;;;15.10;99.90;;;;;;5045309;28;20630;-81
2022/08/29 05:02:55;;;;;;;12.93;11.70;;;15.10;99.90;;;;;;5046783;28;20642;-81
2022/08/29 05:05:22;;;;;;;11.83;10.90;;;15.10;99.90;;;;;;5052306;28;20626;-81
2022/08/29 05:07:51;;;;;;;11.97;10.97;;;15.10;99.90;;;;;;5048081;28;20798;-79
2022/08/29 05:10:19;;;;;;;12.07;10.87;;;15.00;99.90;;;;;;5043460;28;20665;-80
2022/08/29 05:12:47;;;;;;;12.43;11.43;;;15.00;99.90;;;;;;5046173;28;20974;-80
2022/08/29 05:15:15;;;;;;;11.87;10.97;;;15.00;99.90;;;;;;5041847;28;20670;-80
2022/08/29 05:17:42;;;;;;;11.80;10.80;;;15.00;99.90;;;;;;5044266;28;20749;-80
2022/08/29 05:20:10;;;;;;;11.00;10.20;;;15.00;99.90;;;;;;5043887;28;20638;-80
2022/08/29 05:22:38;;;;;;;11.83;10.87;;;15.10;99.90;;;;;;5044999;28;20630;-80
2022/08/29 05:25:07;;;;;;;11.23;10.43;;;15.10;99.90;;;;;;5044434;28;20634;-80
2022/08/29 05:27:34;;;;;;;10.70;10.00;;;15.20;99.90;;;;;;5044773;28;20641;-80
2022/08/29 05:30:02;;;;;;;11.50;10.50;;;15.20;99.90;;;;;;5044227;28;20630;-80
2022/08/29 05:32:29;;;;;;;12.70;11.40;;;15.30;99.90;;;;;;5044281;28;20654;-80
2022/08/29 05:34:57;;;;;;;11.23;10.40;;;15.30;99.90;;;;;;5043200;28;20626;-80
2022/08/29 05:37:24;;;;;;;11.80;10.97;;;15.40;99.90;;;;;;5045226;28;20712;-80
2022/08/29 05:39:51;;;;;;;11.43;10.63;;;15.50;99.90;;;;;;5044283;28;20637;-80
2022/08/29 05:42:21;;;;;;;13.10;12.00;;;15.60;99.90;;;;;;5040442;28;20643;-80
2022/08/29 05:44:48;;;;;;;13.80;12.40;;;15.60;99.90;;;;;;5044688;28;20669;-80
2022/08/29 05:47:18;;;;;;;14.57;13.27;;;15.80;99.90;;;;;;5043391;28;20647;-80
2022/08/29 05:49:47;;;;;;;15.07;13.97;;;15.90;99.90;;;;;;5044564;28;20634;-80
2022/08/29 05:52:16;;;;;;;15.53;14.20;;;15.90;99.90;;;;;;5040751;28;20634;-80
2022/08/29 05:54:46;;;;;;;15.77;14.17;;;15.90;99.90;;;;;;5044357;28;21255;-80
2022/08/29 05:57:14;;;;;;;14.90;13.70;;;16.00;99.90;;;;;;5044080;28;20677;-80
2022/08/29 05:59:42;;;;;;;14.57;13.47;;;16.00;99.90;;;;;;5040722;28;20626;-80
2022/08/29 06:02:10;;;;;;;17.57;15.90;;;16.20;99.90;;;;;;5042182;28;20633;-80
2022/08/29 06:04:37;;;;;;;17.60;16.13;;;16.20;99.90;;;;;;5043690;28;20642;-80
2022/08/29 06:07:05;;;;;;;16.67;15.47;;;16.30;99.90;;;;;;5044440;28;20661;-80
2022/08/29 06:09:32;;;;;;;17.40;16.10;;;16.40;99.90;;;;;;5044164;28;20622;-81
2022/08/29 06:11:59;;;;;;;15.93;14.73;;;16.40;99.90;;;;;;5044979;28;21216;-81
2022/08/29 06:14:26;;;;;;;17.20;15.83;;;16.40;99.90;;;;;;5041042;28;21165;-80
2022/08/29 06:16:54;;;;;;;16.07;14.50;;;16.40;99.90;;;;;;5043458;28;20661;-80
2022/08/29 06:19:21;;;;;;;16.53;15.13;;;16.50;99.90;;;;;;5044648;28;20634;-80
2022/08/29 06:21:48;;;;;;;15.30;14.10;;;16.60;99.90;;;;;;5044101;28;20766;-80
2022/08/29 06:24:15;;;;;;;15.80;14.50;;;16.70;99.90;;;;;;5042933;28;20630;-80
2022/08/29 06:26:44;;;;;;;15.90;14.50;;;16.70;99.90;;;;;;5042760;28;20626;-82
2022/08/29 06:29:13;;;;;;;15.20;13.90;;;16.80;99.90;;;;;;5037765;28;20704;-81
2022/08/29 06:31:40;;;;;;;19.07;17.43;;;16.90;99.90;;;;;;5043905;28;20687;-79
2022/08/29 06:34:09;;;;;;;17.73;16.47;;;17.00;99.90;;;;;;5041984;28;20645;-82
2022/08/29 06:36:36;;;;;;;18.23;16.70;;;17.10;99.90;;;;;;5043526;28;20650;-79
2022/08/29 06:39:07;;;;;;;16.70;15.37;;;17.20;99.90;;;;;;5042898;28;21284;-82
2022/08/29 06:41:35;;;;;;;17.90;16.20;;;17.40;99.90;;;;;;5043804;28;20626;-81
2022/08/29 06:44:02;;;;;;;18.43;16.80;;;17.50;99.90;;;;;;5041802;28;20638;-82
2022/08/29 06:46:31;;;;;;;16.03;14.73;;;17.60;99.90;;;;;;5043929;28;20614;-82
2022/08/29 06:49:00;;;;;;;17.70;16.30;;;17.70;99.90;;;;;;5040954;28;20656;-82
2022/08/29 06:51:31;;;;;;;18.00;16.60;;;17.80;99.90;;;;;;5045165;28;20614;-82
2022/08/29 06:53:58;;;;;;;17.33;15.90;;;17.80;99.90;;;;;;5042960;28;20682;-81
2022/08/29 06:56:25;;;;;;;17.17;15.47;;;17.90;99.90;;;;;;5041522;28;20662;-81
2022/08/29 06:58:52;;;;;;;15.97;14.47;;;18.10;99.90;;;;;;5041765;28;20681;-82
2022/08/29 07:01:21;;;;;;;15.53;14.23;;;18.20;99.90;;;;;;5041517;28;20638;-91
2022/08/29 07:03:48;;;;;;;13.73;12.70;;;18.30;99.90;;;;;;5044957;28;21045;-80
2022/08/29 07:06:16;;;;;;;16.13;14.53;;;18.50;99.90;;;;;;5040257;28;21173;-78
2022/08/29 07:08:44;;;;;;;13.83;12.80;;;18.50;99.90;;;;;;5037993;28;20649;-78
2022/08/29 07:11:11;;;;;;;14.10;12.73;;;18.50;99.90;;;;;;5040193;28;20626;-78
2022/08/29 07:13:38;;;;;;;13.03;11.67;;;18.60;99.90;;;;;;5042460;28;20625;-81
2022/08/29 07:16:08;;;;;;;12.33;11.40;;;18.60;99.90;;;;;;5040107;28;20669;-78
2022/08/29 07:18:35;;;;;;;12.63;11.63;;;18.70;99.90;;;;;;5044629;28;20660;-78
2022/08/29 07:21:05;;;;;;;13.10;12.07;;;18.80;99.90;;;;;;5044519;28;21002;-78
2022/08/29 07:23:32;;;;;;;12.40;11.23;;;18.70;99.90;;;;;;5041776;28;20626;-78
2022/08/29 07:26:08;;;;;;;10.50;9.60;;;18.80;99.90;;;;;;5043101;28;20633;-78
2022/08/29 07:28:35;;;;;;;11.47;10.37;;;19.00;99.90;;;;;;5040394;28;20727;-78
2022/08/29 07:31:02;;;;;;;12.87;10.67;;;19.10;99.90;;;;;;5041078;28;20776;-78
2022/08/29 07:33:30;;;;;;;13.03;11.90;;;19.20;99.90;;;;;;5044239;28;20630;-79
2022/08/29 07:35:56;;;;;;;9.63;8.83;;;19.30;99.90;;;;;;5040492;28;21598;-78
2022/08/29 07:38:24;;;;;;;13.73;11.70;;;19.40;99.90;;;;;;5044709;28;20669;-78
2022/08/29 07:40:58;;;;;;;12.90;11.87;;;19.50;99.90;;;;;;5046852;28;20646;-79
2022/08/29 07:43:26;;;;;;;13.93;12.47;;;19.60;99.90;;;;;;5048115;28;20609;-78
2022/08/29 07:45:53;;;;;;;12.90;11.73;;;19.80;99.90;;;;;;5047535;28;20621;-80
2022/08/29 07:48:20;;;;;;;11.83;10.83;;;19.90;99.90;;;;;;5044706;28;20665;-80
2022/08/29 07:50:47;;;;;;;11.57;10.37;;;20.00;99.90;;;;;;5046541;28;20629;-78
2022/08/29 07:53:14;;;;;;;12.17;11.13;;;20.10;99.90;;;;;;5047713;28;20630;-81
2022/08/29 07:55:41;;;;;;;11.57;10.57;;;20.20;99.90;;;;;;5043311;28;20694;-81
2022/08/29 07:58:07;;;;;;;11.67;10.60;;;20.40;99.90;;;;;;5043442;28;21034;-79
2022/08/29 08:00:36;;;;;;;9.03;8.20;;;20.50;99.90;;;;;;5046570;28;20630;-79
2022/08/29 08:03:03;;;;;;;10.30;8.40;;;20.60;99.90;;;;;;5045480;28;21191;-79
2022/08/29 08:05:29;;;;;;;11.77;10.77;;;20.70;99.90;;;;;;5046144;28;20625;-79
2022/08/29 08:07:56;;;;;;;10.73;9.53;;;20.70;99.90;;;;;;5046041;28;20669;-79
2022/08/29 08:10:23;;;;;;;11.97;11.00;;;20.90;99.90;;;;;;5046271;28;20649;-79
2022/08/29 08:12:51;;;;;;;12.13;11.10;;;20.90;99.90;;;;;;5039740;28;20728;-79
2022/08/29 08:15:18;;;;;;;11.30;10.33;;;21.00;99.90;;;;;;5042639;28;20634;-79
2022/08/29 08:17:46;;;;;;;11.23;10.23;;;21.10;99.90;;;;;;5047390;28;20683;-79
2022/08/29 08:20:14;;;;;;;12.67;11.67;;;21.20;99.90;;;;;;5047739;28;20710;-79
2022/08/29 08:22:41;;;;;;;13.57;10.53;;;21.30;99.90;;;;;;5045053;28;21202;-79
2022/08/29 08:25:08;;;;;;;12.17;11.07;;;21.30;99.90;;;;;;5043878;28;20656;-79
2022/08/29 08:27:35;;;;;;;14.07;12.77;;;21.30;99.90;;;;;;5044681;28;21143;-79
2022/08/29 08:30:02;;;;;;;12.73;11.57;;;21.30;99.90;;;;;;5043706;28;20646;-79
2022/08/29 08:32:29;;;;;;;9.40;8.70;;;21.40;99.90;;;;;;5045418;28;20634;-79
2022/08/29 08:34:57;;;;;;;13.03;11.70;;;21.50;99.90;;;;;;5044773;28;20629;-80
2022/08/29 08:37:24;;;;;;;12.33;11.10;;;21.60;99.90;;;;;;5045261;28;21246;-79
2022/08/29 08:39:55;;;;;;;12.50;11.23;;;21.70;99.90;;;;;;5045481;28;20642;-79
2022/08/29 08:42:31;;;;;;;10.67;9.87;;;21.80;99.90;;;;;;5045102;28;21157;-79
2022/08/29 08:45:07;;;;;;;12.13;11.03;;;21.90;99.90;;;;;;5044225;28;20637;-79
2022/08/29 08:47:38;;;;;;;11.80;10.70;;;22.00;99.90;;;;;;5043807;28;20645;-79
2022/08/29 08:50:15;;;;;;;10.20;9.13;;;22.10;99.90;;;;;;5042298;28;20656;-79
2022/08/29 08:52:45;;;;;;;10.40;8.93;;;22.20;99.90;;;;;;5042201;28;20630;-80
2022/08/29 08:55:22;;;;;;;12.20;7.73;;;22.30;99.90;;;;;;5044643;28;21150;-79
2022/08/29 08:57:55;;;;;;;12.30;8.20;;;22.40;99.90;;;;;;5043710;28;20692;-79
2022/08/29 09:00:21;;;;;;;10.93;9.80;;;22.50;99.90;;;;;;5043296;28;20685;-79
2022/08/29 09:03:00;;;;;;;9.20;8.50;;;22.60;99.90;;;;;;5043553;28;20645;-79
2022/08/29 09:05:38;;;;;;;9.47;8.60;;;22.70;99.90;;;;;;5043258;28;20716;-79
2022/08/29 09:08:17;;;;;;;8.83;7.93;;;22.80;99.90;;;;;;5043458;28;20715;-79
2022/08/29 09:10:55;;;;;;;9.20;8.20;;;22.90;99.90;;;;;;5041336;28;21238;-79
2022/08/29 09:13:35;;;;;;;10.17;7.73;;;23.00;99.90;;;;;;5043221;28;20648;-79
2022/08/29 09:16:08;;;;;;;8.57;7.63;;;23.20;99.90;;;;;;5042059;28;20776;-79
2022/08/29 09:18:38;;;;;;;7.57;6.87;;;23.50;99.90;;;;;;5044210;28;20664;-79
2022/08/29 09:21:13;;;;;;;7.63;6.53;;;23.60;99.90;;;;;;5043609;28;20625;-79
2022/08/29 09:23:43;;;;;;;6.83;5.70;;;23.80;99.90;;;;;;5045116;28;20630;-79
2022/08/29 09:26:11;;;;;;;6.00;5.43;;;23.90;99.90;;;;;;5044547;28;20703;-79
2022/08/29 09:28:38;;;;;;;5.47;5.00;;;24.10;99.90;;;;;;5039359;28;20658;-79
2022/08/29 09:31:22;;;;;;;6.70;5.77;;;24.30;99.90;;;;;;5042482;28;20721;-79
2022/08/29 09:33:51;;;;;;;6.73;5.07;;;24.50;99.90;;;;;;5041810;28;20618;-79
2022/08/29 09:36:35;;;;;;;5.43;5.03;;;24.60;99.90;;;;;;5042778;28;21056;-79
2022/08/29 09:39:15;;;;;;;5.47;5.07;;;24.80;99.90;;;;;;5042152;28;20760;-79
2022/08/29 09:41:43;;;;;;;5.13;4.60;;;24.90;99.90;;;;;;5041413;28;20671;-79
2022/08/29 09:44:18;;;;;;;5.87;5.33;;;25.00;99.90;;;;;;5041242;28;20633;-79
2022/08/29 09:46:45;;;;;;;6.43;5.83;;;25.10;99.90;;;;;;5041671;28;20625;-79
2022/08/29 09:49:16;;;;;;;5.70;4.70;;;25.30;99.90;;;;;;5043311;28;20655;-79
2022/08/29 09:51:47;;;;;;;5.27;4.87;;;25.40;99.90;;;;;;5043936;28;20659;-79
2022/08/29 09:54:18;;;;;;;4.70;4.30;;;25.50;99.90;;;;;;5044204;28;20669;-79
2022/08/29 09:56:52;;;;;;;5.07;4.63;;;25.60;99.90;;;;;;5043393;28;20673;-79
2022/08/29 09:59:25;;;;;;;5.67;5.07;;;25.70;99.90;;;;;;5043257;28;20656;-79
2022/08/29 10:02:13;;;;;;;4.83;4.43;;;25.90;99.90;;;;;;5041033;28;20629;-79
2022/08/29 10:04:43;;;;;;;6.43;4.57;;;25.90;99.90;;;;;;5042722;28;20626;-79
2022/08/29 10:07:16;;;;;;;6.90;4.10;;;26.10;99.90;;;;;;5041821;28;20614;-79
2022/08/29 10:09:53;;;;;;;6.00;5.00;;;26.20;98.90;;;;;;5041597;28;20629;-79
2022/08/29 10:12:28;;;;;;;5.63;4.40;;;26.40;99.80;;;;;;5044075;28;20634;-79
2022/08/29 10:14:59;;;;;;;4.70;4.30;;;26.50;98.00;;;;;;5035658;28;20649;-79
2022/08/29 10:20:20;;;;;;;4.90;4.50;;;27.00;96.80;;;;;;5042167;28;21025;-80
2022/08/29 10:22:56;;;;;;;6.20;3.73;;;27.20;94.90;;;;;;5042410;28;20632;-79
2022/08/29 10:25:33;;;;;;;13.27;4.87;;;27.30;92.40;;;;;;5042685;28;21189;-79
2022/08/29 10:28:06;;;;;;;4.67;4.30;;;27.60;93.40;;;;;;5037132;28;20699;-79
2022/08/29 10:30:41;;;;;;;5.33;4.50;;;27.80;90.60;;;;;;5042241;28;20633;-79
2022/08/29 10:33:24;;;;;;;4.60;4.03;;;27.90;91.60;;;;;;5043793;28;20633;-79
2022/08/29 10:35:56;;;;;;;4.57;4.07;;;28.30;89.40;;;;;;5043596;28;20680;-79
2022/08/29 10:38:39;;;;;;;6.17;5.00;;;28.50;83.50;;;;;;5041084;28;20685;-79
2022/08/29 10:41:17;;;;;;;5.60;5.10;;;28.50;82.70;;;;;;5040298;28;20643;-79
2022/08/29 10:43:53;;;;;;;6.83;5.40;;;28.50;81.20;;;;;;5041325;28;21184;-79
2022/08/29 10:46:40;;;;;;;7.00;6.60;;;28.80;80.10;;;;;;5042371;28;21165;-79
2022/08/29 10:49:19;;;;;;;7.70;4.70;;;28.90;77.20;;;;;;5040795;28;20654;-79
2022/08/29 10:51:56;;;;;;;6.77;6.27;;;29.00;76.40;;;;;;5040853;28;20625;-79
2022/08/29 10:54:34;;;;;;;7.67;7.07;;;29.10;77.80;;;;;;5042605;28;20977;-79
2022/08/29 10:57:03;;;;;;;6.33;5.93;;;29.10;78.10;;;;;;5041988;28;20724;-79
2022/08/29 10:59:36;;;;;;;5.97;5.57;;;29.00;71.90;;;;;;5043203;28;20634;-79
2022/08/29 11:02:08;;;;;;;7.07;6.47;;;28.90;73.40;;;;;;5043835;28;20614;-79
2022/08/29 11:04:38;;;;;;;8.33;7.53;;;29.00;76.60;;;;;;5041449;28;20629;-79
2022/08/29 11:07:10;;;;;;;7.77;7.27;;;29.10;78.80;;;;;;5041280;28;20630;-79
2022/08/29 11:09:43;;;;;;;6.23;5.50;;;29.30;74.90;;;;;;5043020;28;20610;-79
2022/08/29 11:12:15;;;;;;;7.70;7.20;;;29.40;73.50;;;;;;5044079;28;20621;-79
2022/08/29 11:14:47;;;;;;;8.50;7.97;;;29.80;76.90;;;;;;5046007;28;20626;-79
2022/08/29 11:17:17;;;;;;;6.93;6.40;;;30.20;76.20;;;;;;5045967;28;20662;-79
2022/08/29 11:19:57;;;;;;;5.43;4.83;;;30.60;71.40;;;;;;5045265;28;20716;-79
2022/08/29 11:22:29;;;;;;;5.27;4.77;;;31.00;68.10;;;;;;5046243;28;20629;-79
2022/08/29 11:25:03;;;;;;;5.13;4.70;;;31.30;65.50;;;;;;5047447;28;20972;-79
2022/08/29 11:27:38;;;;;;;7.33;6.77;;;31.50;63.90;;;;;;5045960;28;20644;-79
2022/08/29 11:30:07;;;;;;;5.00;4.60;;;31.90;61.10;;;;;;5040289;28;20628;-79
2022/08/29 11:32:44;;;;;;;4.50;4.10;;;32.10;60.90;;;;;;5046690;28;20631;-79
2022/08/29 11:35:20;;;;;;;7.50;6.43;;;32.40;58.90;;;;;;5046402;28;20664;-79
2022/08/29 11:38:13;;;;;;;5.23;4.73;;;32.80;59.30;;;;;;5042517;28;20680;-79
2022/08/29 11:40:55;;;;;;;5.17;4.30;;;33.20;56.30;;;;;;5046210;28;20663;-79
2022/08/29 11:43:26;;;;;;;3.87;3.57;;;33.30;56.50;;;;;;5044389;28;20625;-79
2022/08/29 11:45:58;;;;;;;4.87;3.70;;;33.40;54.40;;;;;;5045541;28;20625;-79
2022/08/29 11:48:35;;;;;;;4.00;3.70;;;33.30;52.70;;;;;;5044165;28;20657;-80
2022/08/29 11:51:27;;;;;;;5.13;4.60;;;33.50;52.90;;;;;;5044944;28;20632;-79
2022/08/29 11:53:54;;;;;;;4.40;4.10;;;33.70;51.70;;;;;;5043888;28;20637;-79
2022/08/29 11:56:25;;;;;;;3.80;3.50;;;33.40;51.00;;;;;;5043170;28;20626;-79
2022/08/29 11:58:54;;;;;;;3.90;3.50;;;33.70;50.30;;;;;;5047822;28;20681;-79
2022/08/29 12:01:59;;;;;;;4.10;3.70;;;34.10;48.20;;;;;;5044009;28;20637;-80
2022/08/29 12:04:52;;;;;;;3.57;3.27;;;34.50;47.30;;;;;;5045512;28;21797;-79
2022/08/29 12:07:21;;;;;;;4.43;4.07;;;34.80;47.20;;;;;;5045219;28;20707;-80
2022/08/29 12:09:53;;;;;;;3.83;3.43;;;34.60;45.60;;;;;;5043103;28;21061;-80
2022/08/29 12:12:44;;;;;;;4.87;3.57;;;34.40;46.20;;;;;;5045223;28;20745;-80
2022/08/29 12:15:59;;;;;;;4.10;3.80;;;34.50;45.90;;;;;;5042990;28;20239;-80
2022/08/29 12:18:34;;;;;;;3.77;3.47;;;34.50;45.50;;;;;;5045191;28;20238;-80
2022/08/29 12:21:04;;;;;;;4.07;3.77;;;34.10;45.30;;;;;;5044506;28;20210;-80
2022/08/29 12:23:34;;;;;;;6.13;4.23;;;34.10;47.30;;;;;;5042321;28;20254;-80
2022/08/29 12:26:04;;;;;;;4.80;4.30;;;33.90;48.00;;;;;;5045142;28;20290;-80
2022/08/29 12:28:44;;;;;;;4.20;3.90;;;33.70;49.30;;;;;;5043665;28;20246;-80
2022/08/29 12:31:40;;;;;;;5.43;3.83;;;33.40;49.20;;;;;;5045964;28;20682;-80
2022/08/29 12:34:20;;;;;;;4.93;4.43;;;33.30;49.50;;;;;;5008779;28;20634;-79
2022/08/29 12:37:12;;;;;;;3.80;3.60;;;33.40;49.30;;;;;;5044986;28;20659;-80
2022/08/29 12:40:16;;;;;;;5.10;4.70;;;33.20;48.90;;;;;;5043544;28;20987;-79
2022/08/29 12:42:51;;;;;;;9.20;8.60;;;32.90;48.80;;;;;;5041572;28;20620;-79
2022/08/29 12:45:25;;;;;;;7.83;7.43;;;32.40;50.30;;;;;;5043934;28;20647;-80
2022/08/29 12:47:57;;;;;;;7.60;7.10;;;32.00;50.00;;;;;;5042829;28;20744;-80
2022/08/29 12:50:27;;;;;;;7.77;7.03;;;32.20;50.10;;;;;;5045487;28;21103;-79
2022/08/29 12:53:02;;;;;;;6.87;6.37;;;32.60;49.60;;;;;;5046045;28;20644;-79
2022/08/29 12:55:37;;;;;;;7.83;7.23;;;33.40;49.40;;;;;;5043577;28;20621;-79
2022/08/29 12:58:04;;;;;;;7.63;7.20;;;34.20;47.10;;;;;;5042016;28;20675;-79
2022/08/29 13:00:34;;;;;;;6.60;6.20;;;34.80;46.90;;;;;;5043710;28;20641;-79